Time;durP1;ratioP1;P1;durP2;ratioP2;P2;SDS_P1;SDS_P2;PMS_P1;PMS_P2;Temp;Humidity;BMP_temperature;BMP_pressure;BME280_temperature;BME280_humidity;BME280_pressure;Samples;Min_cycle;Max_cycle;Signal;HPM_P1;HPM_P2
2022/04/21 00:02:14;;;;;;;;;;;11.40;99.90;;;;;;5052649;28;20054;-55
2022/04/21 00:04:40;;;;;;;;;;;11.40;99.90;;;;;;5056897;28;19965;-52
2022/04/21 00:07:05;;;;;;;;;;;11.40;99.90;;;;;;5048882;28;20298;-56
2022/04/21 00:09:30;;;;;;;;;;;11.40;99.90;;;;;;5049883;28;19924;-54
2022/04/21 00:11:56;;;;;;;;;;;11.30;99.90;;;;;;5051156;28;19908;-49
2022/04/21 00:14:21;;;;;;;;;;;11.30;99.90;;;;;;5051967;28;20264;-55
2022/04/21 00:16:47;;;;;;;;;;;11.30;99.90;;;;;;5050767;28;19935;-52
2022/04/21 00:19:12;;;;;;;;;;;11.30;99.90;;;;;;5057799;28;19916;-52
2022/04/21 00:24:21;;;;;;;;;;;11.30;99.90;;;;;;5048920;28;19930;-51
2022/04/21 00:26:47;;;;;;;;;;;11.30;99.90;;;;;;5049362;28;20365;-51
2022/04/21 00:29:13;;;;;;;;;;;11.30;99.90;;;;;;5052879;28;20374;-52
2022/04/21 00:31:39;;;;;;;;;;;11.30;99.90;;;;;;5047334;28;20367;-55
2022/04/21 00:34:04;;;;;;;;;;;11.30;99.90;;;;;;5053783;28;19908;-54
2022/04/21 00:36:30;;;;;;;;;;;11.20;99.90;;;;;;5049252;28;19912;-57
2022/04/21 00:38:55;;;;;;;;;;;11.30;99.90;;;;;;5051700;28;19912;-54
2022/04/21 00:41:21;;;;;;;;;;;11.30;99.90;;;;;;5058762;28;19913;-52
2022/04/21 00:43:46;;;;;;;;;;;11.20;99.90;;;;;;5053838;28;19908;-55
2022/04/21 00:46:17;;;;;;;;;;;11.20;99.90;;;;;;5052152;28;19909;-54
2022/04/21 00:48:43;;;;;;;;;;;11.10;99.90;;;;;;5050767;28;19954;-56
2022/04/21 00:51:10;;;;;;;;;;;11.10;99.90;;;;;;5055942;28;19916;-56
2022/04/21 00:53:36;;;;;;;;;;;11.10;99.90;;;;;;5057584;28;20386;-53
2022/04/21 00:56:02;;;;;;;;;;;11.10;99.90;;;;;;5053095;28;19931;-55
2022/04/21 00:58:29;;;;;;;;;;;11.10;99.90;;;;;;5053296;28;20365;-54
2022/04/21 01:00:54;;;;;;;;;;;11.10;99.90;;;;;;5053500;28;19997;-54
2022/04/21 01:03:20;;;;;;;;;;;11.00;99.90;;;;;;5056404;28;20401;-54
2022/04/21 01:05:47;;;;;;;;;;;11.00;99.90;;;;;;5053625;28;19908;-58
2022/04/21 01:08:12;;;;;;;;;;;11.00;99.90;;;;;;5051697;28;19916;-54
2022/04/21 01:10:39;;;;;;;;;;;11.00;99.90;;;;;;5057991;28;20298;-53
2022/04/21 01:13:06;;;;;;;;;;;11.00;99.90;;;;;;5060304;28;19908;-53
2022/04/21 01:15:31;;;;;;;;;;;10.90;99.90;;;;;;5053432;28;19916;-52
2022/04/21 01:17:57;;;;;;;;;;;10.90;99.90;;;;;;5051247;28;19913;-54
2022/04/21 01:20:23;;;;;;;;;;;10.90;99.90;;;;;;5059024;28;20390;-54
2022/04/21 01:22:49;;;;;;;;;;;10.90;99.90;;;;;;5057591;28;19924;-56
2022/04/21 01:25:14;;;;;;;;;;;10.90;99.90;;;;;;5058139;28;19908;-56
2022/04/21 01:27:40;;;;;;;;;;;10.90;99.90;;;;;;5053534;28;19909;-53
2022/04/21 01:30:07;;;;;;;;;;;10.80;99.90;;;;;;5052054;28;19915;-52
2022/04/21 01:32:35;;;;;;;;;;;10.80;99.90;;;;;;5052788;28;20374;-50
2022/04/21 01:35:07;;;;;;;;;;;10.70;99.90;;;;;;5056282;28;19919;-58
2022/04/21 01:43:01;;;;;;;;;;;10.50;99.90;;;;;;5053443;28;19916;-57
2022/04/21 01:45:27;;;;;;;;;;;10.40;99.90;;;;;;5057076;28;19909;-51
2022/04/21 01:47:52;;;;;;;;;;;10.30;99.90;;;;;;5058101;28;19908;-57
2022/04/21 01:50:18;;;;;;;;;;;10.20;99.90;;;;;;5054110;28;19909;-56
2022/04/21 01:52:44;;;;;;;;;;;10.20;99.90;;;;;;5058818;28;19994;-59
2022/04/21 01:55:09;;;;;;;;;;;10.10;99.90;;;;;;5037130;28;20565;-57
2022/04/21 01:57:35;;;;;;;;;;;10.10;99.90;;;;;;5054358;28;19936;-53
2022/04/21 02:00:00;;;;;;;;;;;10.00;99.90;;;;;;5052449;28;19912;-57
2022/04/21 02:02:26;;;;;;;;;;;9.90;99.90;;;;;;5070400;22;19924;-58
2022/04/21 02:04:51;;;;;;;;;;;9.90;99.90;;;;;;5051607;28;20301;-61
2022/04/21 02:07:17;;;;;;;;;;;9.90;99.90;;;;;;5052710;28;19951;-61
2022/04/21 02:09:42;;;;;;;;;;;9.90;99.90;;;;;;5053529;28;19913;-59
2022/04/21 02:12:08;;;;;;;;;;;9.80;99.90;;;;;;5049599;28;19912;-60
2022/04/21 02:14:37;;;;;;;;;;;9.80;99.90;;;;;;5051857;28;19983;-61
2022/04/21 02:17:05;;;;;;;;;;;9.70;99.90;;;;;;5057066;28;19908;-56
2022/04/21 02:19:31;;;;;;;;;;;9.60;99.90;;;;;;5053812;28;20011;-56
2022/04/21 02:21:56;;;;;;;;;;;9.50;99.90;;;;;;5055351;28;20462;-57
2022/04/21 02:24:22;;;;;;;;;;;9.40;99.90;;;;;;5055862;28;19908;-57
2022/04/21 02:26:47;;;;;;;;;;;9.20;99.90;;;;;;5054378;28;19912;-58
2022/04/21 02:29:13;;;;;;;;;;;9.10;99.90;;;;;;5060408;28;19908;-59
2022/04/21 02:31:38;;;;;;;;;;;9.10;99.90;;;;;;5056593;28;19909;-55
2022/04/21 02:34:03;;;;;;;;;;;9.10;99.90;;;;;;5053652;28;19914;-60
2022/04/21 02:36:29;;;;;;;;;;;9.00;99.90;;;;;;5057426;28;20422;-61
2022/04/21 02:38:54;;;;;;;;;;;9.00;99.90;;;;;;5059234;28;19912;-59
2022/04/21 02:41:20;;;;;;;;;;;8.90;99.90;;;;;;5055561;28;19912;-60
2022/04/21 02:43:45;;;;;;;;;;;8.80;99.90;;;;;;5060506;28;19908;-62
2022/04/21 02:46:12;;;;;;;;;;;8.70;99.90;;;;;;5051390;28;19908;-59
2022/04/21 02:48:38;;;;;;;;;;;8.50;99.90;;;;;;5053814;28;20066;-63
2022/04/21 02:51:03;;;;;;;;;;;8.40;99.90;;;;;;5051730;28;20382;-58
2022/04/21 02:59:00;;;;;;;;;;;8.10;99.90;;;;;;5058453;28;19920;-62
2022/04/21 03:01:26;;;;;;;;;;;8.10;99.90;;;;;;5047582;28;19951;-62
2022/04/21 03:03:51;;;;;;;;;;;8.00;99.90;;;;;;5055382;28;19978;-61
2022/04/21 03:06:17;;;;;;;;;;;7.90;99.90;;;;;;5051859;28;19934;-64
2022/04/21 03:08:42;;;;;;;;;;;7.90;99.90;;;;;;5054540;28;19999;-63
2022/04/21 03:11:08;;;;;;;;;;;7.80;99.90;;;;;;5051279;28;19913;-59
2022/04/21 03:13:33;;;;;;;;;;;7.80;99.90;;;;;;5051863;28;19970;-61
2022/04/21 03:15:59;;;;;;;;;;;7.70;99.90;;;;;;5055220;28;19917;-58
2022/04/21 03:18:24;;;;;;;;;;;7.70;99.90;;;;;;5056343;28;19975;-61
2022/04/21 03:26:18;;;;;;;;;;;7.50;99.90;;;;;;5054095;28;19958;-60
2022/04/21 03:28:44;;;;;;;;;;;7.50;99.90;;;;;;5052943;28;19943;-62
2022/04/21 03:31:09;;;;;;;;;;;7.60;99.90;;;;;;5051821;28;19908;-64
2022/04/21 03:33:35;;;;;;;;;;;7.50;99.90;;;;;;5050522;28;19908;-65
2022/04/21 03:36:00;;;;;;;;;;;7.40;99.90;;;;;;5053929;28;19912;-63
2022/04/21 03:38:25;;;;;;;;;;;7.40;99.90;;;;;;5050852;28;20264;-63
2022/04/21 03:40:51;;;;;;;;;;;7.30;99.90;;;;;;5055644;28;19912;-60
2022/04/21 03:43:16;;;;;;;;;;;7.20;99.90;;;;;;5050363;28;19912;-61
2022/04/21 03:45:42;;;;;;;;;;;7.20;99.90;;;;;;5054248;28;19908;-64
2022/04/21 03:48:07;;;;;;;;;;;7.20;99.90;;;;;;5049672;28;20362;-64
2022/04/21 03:50:34;;;;;;;;;;;7.10;99.90;;;;;;5053879;28;19981;-63
2022/04/21 03:52:59;;;;;;;;;;;7.00;99.90;;;;;;5049921;28;19927;-64
2022/04/21 03:55:25;;;;;;;;;;;7.10;99.90;;;;;;5056096;28;20359;-61
2022/04/21 03:57:51;;;;;;;;;;;7.10;99.90;;;;;;5050503;28;19909;-63
2022/04/21 04:00:16;;;;;;;;;;;7.10;99.90;;;;;;5052522;28;19917;-64
2022/04/21 04:02:42;;;;;;;;;;;7.00;99.90;;;;;;5051014;28;19999;-64
2022/04/21 04:05:07;;;;;;;;;;;7.10;99.90;;;;;;5051646;28;19952;-61
2022/04/21 04:13:01;;;;;;;;;;;7.00;99.90;;;;;;5047954;28;20413;-63
2022/04/21 04:15:27;;;;;;;;;;;6.90;99.90;;;;;;5048802;28;19944;-59
2022/04/21 04:17:52;;;;;;;;;;;6.90;99.90;;;;;;5053991;28;19940;-62
2022/04/21 04:20:18;;;;;;;;;;;6.90;99.90;;;;;;5053572;28;20298;-64
2022/04/21 04:22:43;;;;;;;;;;;6.80;99.90;;;;;;5057163;28;20426;-63
2022/04/21 04:25:09;;;;;;;;;;;6.70;99.90;;;;;;5048141;28;19991;-61
2022/04/21 04:27:36;;;;;;;;;;;6.70;99.90;;;;;;5054684;28;19952;-63
2022/04/21 04:30:03;;;;;;;;;;;6.70;99.90;;;;;;5036092;28;19917;-62
2022/04/21 04:32:30;;;;;;;;;;;6.60;99.90;;;;;;5060563;28;19916;-61
2022/04/21 04:34:55;;;;;;;;;;;6.60;99.90;;;;;;5055586;28;20324;-62
2022/04/21 04:37:20;;;;;;;;;;;6.60;99.90;;;;;;5054357;28;19954;-60
2022/04/21 04:39:46;;;;;;;;;;;6.60;99.90;;;;;;5052751;28;19917;-61
2022/04/21 04:42:18;;;;;;;;;;;6.60;99.90;;;;;;5054817;28;20362;-63
2022/04/21 04:44:44;;;;;;;;;;;6.60;99.90;;;;;;5053628;28;19923;-61
2022/04/21 04:47:09;;;;;;;;;;;6.50;99.90;;;;;;5055868;28;19955;-61
2022/04/21 04:49:35;;;;;;;;;;;6.50;99.90;;;;;;5053372;28;19908;-58
2022/04/21 04:52:00;;;;;;;;;;;6.50;99.90;;;;;;5049314;28;19913;-63
2022/04/21 04:54:27;;;;;;;;;;;6.60;99.90;;;;;;5051365;28;19982;-61
2022/04/21 04:56:52;;;;;;;;;;;6.50;99.90;;;;;;5055652;28;19955;-62
2022/04/21 04:59:18;;;;;;;;;;;6.50;99.90;;;;;;5052245;28;19909;-60
2022/04/21 05:01:45;;;;;;;;;;;6.50;99.90;;;;;;5055043;28;19908;-60
2022/04/21 05:04:18;;;;;;;;;;;6.50;99.90;;;;;;5053074;28;19912;-64
2022/04/21 05:06:43;;;;;;;;;;;6.50;99.90;;;;;;5053441;28;19955;-64
2022/04/21 05:09:10;;;;;;;;;;;6.50;99.90;;;;;;5053702;28;19908;-61
2022/04/21 05:11:36;;;;;;;;;;;6.60;99.90;;;;;;5052942;28;20302;-64
2022/04/21 05:14:02;;;;;;;;;;;6.80;99.90;;;;;;5054703;28;20062;-66
2022/04/21 05:16:28;;;;;;;;;;;6.80;99.90;;;;;;5053218;28;19909;-67
2022/04/21 05:18:53;;;;;;;;;;;6.80;99.90;;;;;;5051623;28;19909;-61
2022/04/21 05:21:19;;;;;;;;;;;6.90;99.90;;;;;;5052971;28;19947;-60
2022/04/21 05:23:46;;;;;;;;;;;6.90;99.90;;;;;;5054527;28;19908;-63
2022/04/21 05:26:12;;;;;;;;;;;6.90;99.90;;;;;;5054637;28;19915;-64
2022/04/21 05:28:37;;;;;;;;;;;6.90;99.90;;;;;;5053547;28;19908;-64
2022/04/21 05:31:03;;;;;;;;;;;7.00;99.90;;;;;;5054674;28;19962;-64
2022/04/21 05:33:29;;;;;;;;;;;7.00;99.90;;;;;;5055303;28;19978;-65
2022/04/21 05:35:55;;;;;;;;;;;7.10;99.90;;;;;;5052920;28;19952;-65
2022/04/21 05:38:21;;;;;;;;;;;7.20;99.90;;;;;;5052765;28;19935;-58
2022/04/21 05:40:47;;;;;;;;;;;7.20;99.90;;;;;;5051350;28;19917;-60
2022/04/21 05:43:15;;;;;;;;;;;7.30;99.90;;;;;;5049384;28;19938;-62
2022/04/21 05:45:41;;;;;;;;;;;7.40;99.90;;;;;;5057515;28;19917;-64
2022/04/21 05:48:07;;;;;;;;;;;7.50;99.90;;;;;;5054074;28;19912;-60
2022/04/21 05:50:33;;;;;;;;;;;7.60;99.90;;;;;;5057416;28;19916;-62
2022/04/21 05:53:03;;;;;;;;;;;7.70;99.90;;;;;;5035078;28;19915;-63
2022/04/21 05:55:29;;;;;;;;;;;7.80;99.90;;;;;;5052364;28;19909;-63
2022/04/21 05:57:54;;;;;;;;;;;7.90;99.90;;;;;;5050000;28;19909;-61
2022/04/21 06:00:20;;;;;;;;;;;8.00;99.90;;;;;;5052526;28;20299;-61
2022/04/21 06:02:45;;;;;;;;;;;8.00;99.90;;;;;;5035802;28;19934;-59
2022/04/21 06:05:11;;;;;;;;;;;8.20;99.90;;;;;;5050413;28;19956;-63
2022/04/21 06:07:36;;;;;;;;;;;8.30;99.90;;;;;;5056670;28;19920;-60
2022/04/21 06:10:02;;;;;;;;;;;8.40;99.90;;;;;;5050786;28;19909;-61
2022/04/21 06:12:28;;;;;;;;;;;8.50;99.90;;;;;;5051559;28;19984;-64
2022/04/21 06:14:53;;;;;;;;;;;8.60;99.90;;;;;;5049935;28;19908;-59
2022/04/21 06:17:19;;;;;;;;;;;8.70;99.90;;;;;;5051407;28;20000;-61
2022/04/21 06:19:44;;;;;;;;;;;8.80;99.90;;;;;;5051245;28;19909;-60
2022/04/21 06:22:09;;;;;;;;;;;8.90;99.90;;;;;;5051897;28;19913;-59
2022/04/21 06:24:35;;;;;;;;;;;9.00;99.90;;;;;;5052261;28;19905;-59
2022/04/21 06:27:03;;;;;;;;;;;9.10;99.90;;;;;;5053720;28;19912;-59
2022/04/21 06:29:29;;;;;;;;;;;9.20;99.90;;;;;;5056874;28;19912;-62
2022/04/21 06:31:54;;;;;;;;;;;9.30;99.90;;;;;;5053811;28;19908;-64
2022/04/21 06:34:20;;;;;;;;;;;9.40;99.90;;;;;;5052068;28;19905;-58
2022/04/21 06:36:45;;;;;;;;;;;9.50;99.90;;;;;;5048815;28;19912;-61
2022/04/21 06:39:11;;;;;;;;;;;9.60;99.90;;;;;;5052589;28;19913;-63
2022/04/21 06:41:36;;;;;;;;;;;9.70;99.90;;;;;;5051632;28;19966;-60
2022/04/21 06:49:30;;;;;;;;;;;9.90;99.90;;;;;;5049547;28;19919;-63
2022/04/21 06:51:56;;;;;;;;;;;10.00;99.90;;;;;;5050676;28;19909;-64
2022/04/21 06:54:21;;;;;;;;;;;10.10;99.90;;;;;;5051192;28;19943;-64
2022/04/21 06:56:48;;;;;;;;;;;10.20;99.90;;;;;;5050190;28;19913;-61
2022/04/21 06:59:17;;;;;;;;;;;10.20;99.90;;;;;;5049708;28;19958;-61
2022/04/21 07:01:43;;;;;;;;;;;10.40;99.90;;;;;;5045453;28;19919;-63
2022/04/21 07:04:08;;;;;;;;;;;10.50;99.90;;;;;;5052381;28;19913;-64
2022/04/21 07:06:34;;;;;;;;;;;10.60;99.90;;;;;;5050247;28;19913;-62
2022/04/21 07:08:59;;;;;;;;;;;10.70;99.90;;;;;;5049717;28;20277;-62
2022/04/21 07:11:24;;;;;;;;;;;10.80;99.90;;;;;;5049696;28;19912;-59
2022/04/21 07:13:51;;;;;;;;;;;10.90;99.90;;;;;;5049901;28;19931;-64
2022/04/21 07:16:17;;;;;;;;;;;11.00;99.90;;;;;;5051663;28;19913;-63
2022/04/21 07:18:42;;;;;;;;;;;11.10;99.90;;;;;;5052151;28;19923;-61
2022/04/21 07:21:09;;;;;;;;;;;11.10;99.90;;;;;;5050594;28;19919;-63
2022/04/21 07:23:35;;;;;;;;;;;11.20;99.90;;;;;;5051320;28;19938;-64
2022/04/21 07:26:01;;;;;;;;;;;11.30;99.90;;;;;;5048914;28;19920;-63
2022/04/21 07:28:26;;;;;;;;;;;11.40;99.90;;;;;;5056858;28;19920;-58
2022/04/21 07:30:52;;;;;;;;;;;11.50;99.90;;;;;;5047716;28;19919;-63
2022/04/21 07:33:17;;;;;;;;;;;11.60;99.90;;;;;;5052151;28;19908;-64
2022/04/21 07:35:43;;;;;;;;;;;11.60;99.90;;;;;;5048886;28;19909;-61
2022/04/21 07:38:09;;;;;;;;;;;11.60;99.90;;;;;;5048385;28;20359;-64
2022/04/21 07:40:35;;;;;;;;;;;11.70;99.90;;;;;;5047045;28;19919;-60
2022/04/21 07:43:03;;;;;;;;;;;11.70;99.90;;;;;;5048320;28;19927;-63
2022/04/21 07:45:29;;;;;;;;;;;11.80;99.90;;;;;;5046116;28;19963;-57
2022/04/21 07:47:55;;;;;;;;;;;11.90;99.90;;;;;;5051659;28;19908;-57
2022/04/21 07:50:23;;;;;;;;;;;11.90;99.90;;;;;;5050248;28;19912;-57
2022/04/21 07:55:33;;;;;;;;;;;12.10;99.90;;;;;;5051202;28;19923;-57
2022/04/21 07:57:59;;;;;;;;;;;12.20;99.90;;;;;;5049455;28;20012;-54
2022/04/21 08:00:24;;;;;;;;;;;12.30;99.90;;;;;;5056512;28;20367;-54
2022/04/21 08:02:50;;;;;;;;;;;12.40;99.90;;;;;;5077941;22;20004;-57
2022/04/21 08:05:20;;;;;;;;;;;12.50;99.90;;;;;;5085857;28;19916;-58
2022/04/21 08:07:46;;;;;;;;;;;12.60;99.90;;;;;;5091560;28;19918;-57
2022/04/21 08:10:12;;;;;;;;;;;12.60;99.90;;;;;;5086573;28;19933;-58
2022/04/21 08:12:39;;;;;;;;;;;12.70;99.90;;;;;;5088065;28;19909;-57
2022/04/21 08:15:06;;;;;;;;;;;12.80;99.90;;;;;;5071002;28;20391;-55
2022/04/21 08:17:31;;;;;;;;;;;12.90;99.90;;;;;;5072354;28;20373;-57
2022/04/21 08:19:57;;;;;;;;;;;12.90;99.90;;;;;;5067689;28;19974;-58
2022/04/21 08:22:22;;;;;;;;;;;13.00;99.90;;;;;;5069626;28;19915;-57
2022/04/21 08:33:00;;;;;;;;;;;13.20;99.90;;;;;;5073807;28;19969;-59
2022/04/21 08:35:26;;;;;;;;;;;13.40;99.90;;;;;;5069605;28;21515;-56
2022/04/21 08:37:51;;;;;;;;;;;13.60;99.90;;;;;;5067511;28;20334;-56
2022/04/21 08:40:16;;;;;;;;;;;13.70;99.90;;;;;;5073365;28;19912;-55
2022/04/21 08:42:43;;;;;;;;;;;13.80;99.90;;;;;;5073039;28;20289;-56
2022/04/21 08:45:09;;;;;;;;;;;13.90;99.90;;;;;;5069589;28;19966;-57
2022/04/21 08:47:39;;;;;;;;;;;14.00;99.90;;;;;;5071018;28;19967;-55
2022/04/21 08:50:05;;;;;;;;;;;14.10;99.90;;;;;;5071028;28;19915;-59
2022/04/21 08:52:31;;;;;;;;;;;14.30;99.90;;;;;;5067310;28;19983;-59
2022/04/21 08:54:57;;;;;;;;;;;14.40;99.90;;;;;;5066440;28;19909;-56
2022/04/21 08:57:22;;;;;;;;;;;14.60;99.90;;;;;;5066504;28;20270;-57
2022/04/21 08:59:48;;;;;;;;;;;14.70;99.90;;;;;;5066955;28;19985;-57
2022/04/21 09:02:13;;;;;;;;;;;14.90;99.90;;;;;;5067327;28;20032;-56
2022/04/21 09:04:38;;;;;;;;;;;14.90;99.90;;;;;;5071344;28;20301;-51
2022/04/21 09:07:13;;;;;;;;;;;15.00;99.90;;;;;;5072187;28;20332;-58
2022/04/21 09:09:38;;;;;;;;;;;15.10;99.90;;;;;;5069571;28;19912;-59
2022/04/21 09:12:04;;;;;;;;;;;15.10;99.90;;;;;;5062926;28;20385;-57
2022/04/21 09:14:30;;;;;;;;;;;15.20;99.90;;;;;;5070772;28;20030;-61
2022/04/21 09:17:02;;;;;;;;;;;15.30;99.90;;;;;;5065126;28;19909;-61
2022/04/21 09:19:28;;;;;;;;;;;15.50;99.90;;;;;;5068267;28;19987;-62
2022/04/21 09:21:53;;;;;;;;;;;15.60;99.90;;;;;;5066848;28;20330;-62
2022/04/21 09:24:20;;;;;;;;;;;15.70;99.90;;;;;;5063228;28;19912;-62
2022/04/21 09:26:45;;;;;;;;;;;15.80;99.90;;;;;;5065040;28;19916;-63
2022/04/21 09:29:13;;;;;;;;;;;16.00;99.90;;;;;;5071508;28;19909;-61
2022/04/21 09:31:42;;;;;;;;;;;16.20;99.90;;;;;;5066494;28;20270;-63
2022/04/21 09:34:08;;;;;;;;;;;16.30;99.90;;;;;;5066687;28;19909;-63
2022/04/21 09:36:33;;;;;;;;;;;16.50;99.90;;;;;;5064060;28;19961;-63
2022/04/21 09:39:00;;;;;;;;;;;16.50;99.90;;;;;;5066811;28;19912;-63
2022/04/21 09:41:30;;;;;;;;;;;16.60;99.90;;;;;;5069835;28;19969;-62
2022/04/21 09:46:07;;;;;;;;;;;16.90;99.90;;;;;;5070682;28;19915;-63
2022/04/21 09:46:50;;;;;;;;;;;17.00;99.90;;;;;;5070211;28;19935;-62
2022/04/21 09:49:32;;;;;;;;;;;16.90;99.90;;;;;;5067781;28;20545;-63
2022/04/21 09:51:57;;;;;;;;;;;17.00;99.90;;;;;;5066063;28;19912;-61
2022/04/21 09:54:27;;;;;;;;;;;17.20;99.90;;;;;;5061992;28;19963;-63
2022/04/21 09:56:53;;;;;;;;;;;17.20;99.90;;;;;;5069708;28;19905;-62
2022/04/21 09:59:19;;;;;;;;;;;17.30;99.90;;;;;;5061285;28;20302;-62
2022/04/21 10:01:44;;;;;;;;;;;17.30;99.90;;;;;;5066866;28;19912;-62
2022/04/21 10:04:17;;;;;;;;;;;17.50;99.90;;;;;;5064767;28;19923;-62
2022/04/21 10:06:43;;;;;;;;;;;17.30;99.90;;;;;;5064316;28;19998;-60
2022/04/21 10:09:09;;;;;;;;;;;17.40;99.90;;;;;;5061325;28;20512;-62
2022/04/21 10:11:37;;;;;;;;;;;17.60;99.90;;;;;;5064959;28;19924;-62
2022/04/21 10:14:04;;;;;;;;;;;17.70;99.90;;;;;;5073674;28;19908;-62
2022/04/21 10:16:30;;;;;;;;;;;17.50;99.90;;;;;;5068438;28;19924;-62
2022/04/21 10:18:57;;;;;;;;;;;17.50;99.90;;;;;;5068771;28;19908;-63
2022/04/21 10:21:26;;;;;;;;;;;17.60;99.90;;;;;;5063515;28;19912;-63
2022/04/21 10:23:52;;;;;;;;;;;17.70;99.90;;;;;;5066418;28;20425;-61
2022/04/21 10:26:33;;;;;;;;;;;17.80;99.90;;;;;;5069543;28;20023;-62
2022/04/21 10:28:58;;;;;;;;;;;17.90;99.40;;;;;;5067369;28;19947;-63
2022/04/21 10:31:35;;;;;;;;;;;17.70;99.90;;;;;;5068802;28;20478;-63
2022/04/21 10:34:02;;;;;;;;;;;17.70;99.90;;;;;;5062256;28;20326;-62
2022/04/21 10:36:41;;;;;;;;;;;17.80;98.70;;;;;;5067733;28;20423;-62
2022/04/21 10:39:16;;;;;;;;;;;17.70;99.90;;;;;;5063457;28;19912;-62
2022/04/21 10:41:41;;;;;;;;;;;17.80;99.90;;;;;;5066852;28;19916;-63
2022/04/21 10:44:13;;;;;;;;;;;18.00;99.50;;;;;;5066204;28;19908;-62
2022/04/21 10:46:39;;;;;;;;;;;18.10;97.00;;;;;;5067779;28;19908;-62
2022/04/21 10:49:04;;;;;;;;;;;17.90;96.70;;;;;;5067890;28;20374;-63
2022/04/21 10:57:11;;;;;;;;;;;17.80;96.00;;;;;;5067407;28;19943;-61
2022/04/21 10:57:31;;;;;;;;;;;17.70;96.30;;;;;;5066657;28;19954;-62
2022/04/21 11:00:05;;;;;;;;;;;17.80;95.60;;;;;;5064908;28;19920;-61
2022/04/21 11:02:44;;;;;;;;;;;17.90;95.80;;;;;;5064198;28;20281;-62
2022/04/21 11:05:21;;;;;;;;;;;17.90;96.70;;;;;;5066446;28;19916;-61
2022/04/21 11:07:53;;;;;;;;;;;18.00;96.60;;;;;;5063960;28;20316;-62
2022/04/21 11:10:38;;;;;;;;;;;18.20;95.70;;;;;;5071266;28;19908;-63
2022/04/21 11:13:08;;;;;;;;;;;18.40;93.20;;;;;;5066925;28;19992;-63
2022/04/21 11:15:42;;;;;;;;;;;18.50;95.50;;;;;;5068279;28;19915;-63
2022/04/21 11:18:11;;;;;;;;;;;18.70;95.40;;;;;;5064952;28;20209;-63
2022/04/21 11:20:41;;;;;;;;;;;18.80;94.40;;;;;;5065639;28;20038;-63
2022/04/21 11:23:08;;;;;;;;;;;18.90;93.80;;;;;;5066614;28;19989;-64
2022/04/21 11:25:33;;;;;;;;;;;19.10;93.70;;;;;;5067837;28;19908;-64
2022/04/21 11:27:59;;;;;;;;;;;19.20;93.30;;;;;;5066931;28;19908;-63
2022/04/21 11:30:25;;;;;;;;;;;19.30;96.80;;;;;;5065896;28;19931;-62
2022/04/21 11:32:51;;;;;;;;;;;19.20;95.10;;;;;;5065347;28;19954;-63
2022/04/21 11:35:17;;;;;;;;;;;19.40;94.50;;;;;;5062594;28;19908;-63
2022/04/21 11:37:46;;;;;;;;;;;19.30;92.50;;;;;;5067983;28;20388;-63
2022/04/21 11:40:22;;;;;;;;;;;19.10;92.30;;;;;;5065279;28;20337;-63
2022/04/21 11:42:49;;;;;;;;;;;19.20;92.70;;;;;;5064180;28;20419;-64
2022/04/21 11:45:35;;;;;;;;;;;19.30;92.80;;;;;;5062940;28;20074;-63
2022/04/21 11:48:00;;;;;;;;;;;19.10;92.60;;;;;;5067872;28;19945;-64
2022/04/21 11:50:27;;;;;;;;;;;18.90;93.20;;;;;;5066758;28;19995;-62
2022/04/21 11:52:53;;;;;;;;;;;19.20;93.80;;;;;;5066836;28;19908;-64
2022/04/21 11:55:20;;;;;;;;;;;19.30;98.90;;;;;;5069056;28;20297;-64
2022/04/21 11:57:45;;;;;;;;;;;19.60;95.40;;;;;;5061296;28;20377;-64
2022/04/21 12:00:12;;;;;;;;;;;19.90;93.00;;;;;;5067545;28;19912;-63
2022/04/21 12:08:06;;;;;;;;;;;20.50;92.60;;;;;;5067892;28;19923;-63
2022/04/21 12:10:32;;;;;;;;;;;20.40;92.90;;;;;;5067898;28;19908;-64
2022/04/21 12:12:57;;;;;;;;;;;20.60;96.10;;;;;;5066044;28;19916;-63
2022/04/21 12:15:30;;;;;;;;;;;20.90;93.10;;;;;;5062251;28;20262;-62
2022/04/21 12:17:59;;;;;;;;;;;20.90;92.30;;;;;;5065984;28;19999;-63
2022/04/21 12:20:25;;;;;;;;;;;20.70;92.30;;;;;;5064677;28;20045;-63
2022/04/21 12:22:50;;;;;;;;;;;20.40;94.10;;;;;;5063413;28;20006;-63
2022/04/21 12:25:16;;;;;;;;;;;20.40;94.10;;;;;;5061714;28;19913;-62
2022/04/21 12:27:42;;;;;;;;;;;20.30;93.10;;;;;;5058579;28;19916;-64
2022/04/21 12:30:08;;;;;;;;;;;20.00;93.20;;;;;;5064111;28;20554;-63
2022/04/21 12:32:35;;;;;;;;;;;19.80;93.10;;;;;;5066347;28;20908;-63
2022/04/21 12:35:03;;;;;;;;;;;20.10;96.20;;;;;;5067807;28;20050;-64
2022/04/21 12:37:32;;;;;;;;;;;20.60;93.40;;;;;;5069244;28;20427;-64
2022/04/21 12:39:59;;;;;;;;;;;21.10;93.50;;;;;;5061425;28;19913;-63
2022/04/21 12:42:24;;;;;;;;;;;21.60;92.90;;;;;;5065685;28;19924;-63
2022/04/21 12:44:51;;;;;;;;;;;21.90;92.30;;;;;;5064768;28;19912;-64
2022/04/21 12:47:20;;;;;;;;;;;22.30;90.70;;;;;;5069609;28;19975;-64
2022/04/21 12:49:49;;;;;;;;;;;22.20;90.20;;;;;;5067647;28;19909;-63
2022/04/21 12:52:14;;;;;;;;;;;22.20;90.00;;;;;;5070354;28;19919;-64
2022/04/21 12:54:40;;;;;;;;;;;22.30;90.30;;;;;;5067751;28;19913;-64
2022/04/21 12:57:08;;;;;;;;;;;22.20;89.20;;;;;;5068349;28;19915;-64
2022/04/21 12:59:33;;;;;;;;;;;22.30;88.40;;;;;;5066295;28;19912;-64
2022/04/21 13:01:59;;;;;;;;;;;22.10;88.70;;;;;;5063193;28;19971;-63
2022/04/21 13:04:24;;;;;;;;;;;22.20;90.50;;;;;;5065472;28;19912;-62
2022/04/21 13:06:50;;;;;;;;;;;22.10;91.50;;;;;;5066354;28;19912;-63
2022/04/21 13:09:15;;;;;;;;;;;21.70;89.10;;;;;;5066285;28;20050;-63
2022/04/21 13:11:41;;;;;;;;;;;21.20;91.90;;;;;;5063471;28;20581;-63
2022/04/21 13:14:06;;;;;;;;;;;20.90;91.50;;;;;;5067926;28;20042;-62
2022/04/21 13:16:32;;;;;;;;;;;20.50;91.40;;;;;;5067620;28;19976;-63
2022/04/21 13:18:57;;;;;;;;;;;19.70;91.90;;;;;;5066284;28;19916;-63
2022/04/21 13:24:07;;;;;;;;;;;19.60;92.70;;;;;;5072382;28;19919;-64
2022/04/21 13:26:33;;;;;;;;;;;19.70;93.00;;;;;;5070219;28;19978;-64
2022/04/21 13:28:59;;;;;;;;;;;19.80;92.20;;;;;;5065037;28;19913;-63
2022/04/21 13:34:09;;;;;;;;;;;19.80;92.60;;;;;;5065575;28;19923;-63
2022/04/21 13:36:36;;;;;;;;;;;20.00;92.60;;;;;;5069480;28;19908;-64
2022/04/21 13:39:01;;;;;;;;;;;20.50;93.60;;;;;;5066373;28;19908;-64
2022/04/21 13:41:27;;;;;;;;;;;21.20;91.60;;;;;;5066228;28;19919;-64
2022/04/21 13:43:52;;;;;;;;;;;21.70;91.40;;;;;;5071485;28;19954;-63
2022/04/21 13:46:18;;;;;;;;;;;21.70;90.20;;;;;;5070975;28;19923;-64
2022/04/21 13:48:43;;;;;;;;;;;21.20;91.60;;;;;;5071421;28;19905;-64
2022/04/21 13:51:09;;;;;;;;;;;20.90;91.50;;;;;;5070216;28;20353;-63
2022/04/21 13:53:34;;;;;;;;;;;20.50;92.10;;;;;;5071151;28;20870;-64
2022/04/21 13:56:05;;;;;;;;;;;20.20;91.80;;;;;;5070707;28;19916;-63
2022/04/21 13:58:31;;;;;;;;;;;20.10;91.60;;;;;;5069714;28;20008;-64
2022/04/21 14:00:57;;;;;;;;;;;20.00;92.90;;;;;;5070398;28;20015;-64
2022/04/21 14:03:26;;;;;;;;;;;20.10;94.10;;;;;;5070415;28;19947;-61
2022/04/21 14:05:52;;;;;;;;;;;20.90;92.90;;;;;;5077438;22;19986;-58
2022/04/21 14:08:18;;;;;;;;;;;21.80;90.40;;;;;;5050449;28;20002;-57
2022/04/21 14:10:44;;;;;;;;;;;22.10;89.60;;;;;;5052793;28;19912;-61
2022/04/21 14:13:10;;;;;;;;;;;21.70;91.00;;;;;;5054989;28;19943;-57
2022/04/21 14:15:35;;;;;;;;;;;21.00;91.00;;;;;;5071231;28;19912;-59
2022/04/21 14:18:01;;;;;;;;;;;20.60;93.20;;;;;;5055991;28;20430;-56
2022/04/21 14:20:26;;;;;;;;;;;20.50;92.30;;;;;;5051496;28;19956;-60
2022/04/21 14:22:52;;;;;;;;;;;20.10;92.30;;;;;;5049801;28;20669;-58
2022/04/21 14:25:18;;;;;;;;;;;19.60;92.50;;;;;;5046023;28;19908;-59
2022/04/21 14:27:44;;;;;;;;;;;19.50;94.10;;;;;;5050246;28;19916;-60
2022/04/21 14:30:10;;;;;;;;;;;19.50;95.00;;;;;;5059799;28;19912;-58
2022/04/21 14:32:36;;;;;;;;;;;19.50;94.20;;;;;;5061792;28;19952;-56
2022/04/21 14:35:01;;;;;;;;;;;19.60;93.10;;;;;;5056044;28;19908;-56
2022/04/21 14:45:40;;;;;;;;;;;19.40;94.00;;;;;;5046816;28;19940;-57
2022/04/21 14:48:06;;;;;;;;;;;19.40;93.60;;;;;;5045681;28;19962;-54
2022/04/21 14:50:32;;;;;;;;;;;19.30;93.50;;;;;;5042197;28;19920;-57
2022/04/21 14:52:57;;;;;;;;;;;19.20;94.10;;;;;;5041393;28;19909;-54
2022/04/21 14:55:23;;;;;;;;;;;19.00;96.80;;;;;;5039093;28;19919;-57
2022/04/21 14:57:49;;;;;;;;;;;18.60;97.40;;;;;;5046495;28;19927;-54
2022/04/21 15:00:15;;;;;;;;;;;18.40;95.90;;;;;;5045744;28;20011;-55
2022/04/21 15:02:41;;;;;;;;;;;18.30;96.70;;;;;;5047908;28;19909;-58
2022/04/21 15:05:07;;;;;;;;;;;18.20;96.70;;;;;;5045881;28;19958;-56
2022/04/21 15:07:32;;;;;;;;;;;18.00;97.20;;;;;;5046817;28;20336;-53
2022/04/21 15:09:58;;;;;;;;;;;18.10;97.80;;;;;;5042172;28;20366;-58
2022/04/21 15:12:24;;;;;;;;;;;18.20;98.80;;;;;;5042920;28;19952;-57
2022/04/21 15:14:50;;;;;;;;;;;18.20;98.10;;;;;;5043569;28;19955;-54
2022/04/21 15:17:16;;;;;;;;;;;18.20;98.50;;;;;;5042565;28;19913;-58
2022/04/21 15:19:44;;;;;;;;;;;18.30;97.80;;;;;;5041825;28;19991;-57
2022/04/21 15:22:09;;;;;;;;;;;18.30;99.10;;;;;;5039005;28;20003;-59